sensor_id;sensor_type;location;lat;lon;timestamp;temperature;humidity
30047;DHT22;16878;52.542;13.426;2022-08-01T00:01:49;22.50;90.70
30047;DHT22;16878;52.542;13.426;2022-08-01T00:04:15;22.50;90.80
30047;DHT22;16878;52.542;13.426;2022-08-01T00:06:40;22.40;90.90
30047;DHT22;16878;52.542;13.426;2022-08-01T00:09:06;22.40;91.10
30047;DHT22;16878;52.542;13.426;2022-08-01T00:11:32;22.40;91.30
30047;DHT22;16878;52.542;13.426;2022-08-01T00:13:57;22.40;91.40
30047;DHT22;16878;52.542;13.426;2022-08-01T00:16:23;22.30;91.70
30047;DHT22;16878;52.542;13.426;2022-08-01T00:18:50;22.30;92.00
30047;DHT22;16878;52.542;13.426;2022-08-01T00:21:16;22.30;92.40
30047;DHT22;16878;52.542;13.426;2022-08-01T00:23:42;22.30;92.90
30047;DHT22;16878;52.542;13.426;2022-08-01T00:26:08;22.20;93.30
30047;DHT22;16878;52.542;13.426;2022-08-01T00:28:34;22.20;93.80
30047;DHT22;16878;52.542;13.426;2022-08-01T00:31:00;22.20;95.00
30047;DHT22;16878;52.542;13.426;2022-08-01T00:33:25;22.10;96.10
30047;DHT22;16878;52.542;13.426;2022-08-01T00:35:51;22.00;96.90
30047;DHT22;16878;52.542;13.426;2022-08-01T00:38:17;22.10;97.40
30047;DHT22;16878;52.542;13.426;2022-08-01T00:40:42;22.00;98.00
30047;DHT22;16878;52.542;13.426;2022-08-01T00:43:09;22.00;98.40
30047;DHT22;16878;52.542;13.426;2022-08-01T00:45:34;22.00;98.90
30047;DHT22;16878;52.542;13.426;2022-08-01T00:48:00;22.00;99.30
30047;DHT22;16878;52.542;13.426;2022-08-01T00:50:25;22.00;99.90
30047;DHT22;16878;52.542;13.426;2022-08-01T00:52:51;21.90;99.90
30047;DHT22;16878;52.542;13.426;2022-08-01T00:55:18;21.80;99.90
30047;DHT22;16878;52.542;13.426;2022-08-01T00:57:44;21.70;99.90
30047;DHT22;16878;52.542;13.426;2022-08-01T01:00:11;21.60;99.90
30047;DHT22;16878;52.542;13.426;2022-08-01T01:02:36;21.60;99.90
30047;DHT22;16878;52.542;13.426;2022-08-01T01:05:02;21.60;99.90
30047;DHT22;16878;52.542;13.426;2022-08-01T01:13:06;21.70;99.90
30047;DHT22;16878;52.542;13.426;2022-08-01T01:15:41;21.70;99.90
30047;DHT22;16878;52.542;13.426;2022-08-01T01:18:17;21.70;99.90
30047;DHT22;16878;52.542;13.426;2022-08-01T01:26:45;21.80;99.90
30047;DHT22;16878;52.542;13.426;2022-08-01T01:29:25;21.80;99.90
30047;DHT22;16878;52.542;13.426;2022-08-01T01:31:59;21.80;99.90
30047;DHT22;16878;52.542;13.426;2022-08-01T01:34:28;21.80;99.90
30047;DHT22;16878;52.542;13.426;2022-08-01T01:36:54;21.80;99.90
30047;DHT22;16878;52.542;13.426;2022-08-01T01:39:24;21.80;99.90
30047;DHT22;16878;52.542;13.426;2022-08-01T01:41:52;21.80;99.90
30047;DHT22;16878;52.542;13.426;2022-08-01T01:44:19;21.80;99.90
30047;DHT22;16878;52.542;13.426;2022-08-01T01:46:46;21.80;99.90
30047;DHT22;16878;52.542;13.426;2022-08-01T01:49:12;21.70;99.90
30047;DHT22;16878;52.542;13.426;2022-08-01T01:51:42;21.70;99.90
30047;DHT22;16878;52.542;13.426;2022-08-01T01:54:09;21.70;99.90
30047;DHT22;16878;52.542;13.426;2022-08-01T01:56:36;21.70;99.90
30047;DHT22;16878;52.542;13.426;2022-08-01T01:59:21;21.70;99.90
30047;DHT22;16878;52.542;13.426;2022-08-01T02:01:51;21.60;99.90
30047;DHT22;16878;52.542;13.426;2022-08-01T02:04:18;21.60;99.90
30047;DHT22;16878;52.542;13.426;2022-08-01T02:06:46;21.50;99.90
30047;DHT22;16878;52.542;13.426;2022-08-01T02:09:15;21.50;99.90
30047;DHT22;16878;52.542;13.426;2022-08-01T02:11:43;21.50;99.90
30047;DHT22;16878;52.542;13.426;2022-08-01T02:14:10;21.40;99.90
30047;DHT22;16878;52.542;13.426;2022-08-01T02:16:37;21.40;99.90
30047;DHT22;16878;52.542;13.426;2022-08-01T02:19:05;21.30;99.90
30047;DHT22;16878;52.542;13.426;2022-08-01T02:24:12;21.30;99.90
30047;DHT22;16878;52.542;13.426;2022-08-01T02:26:43;21.20;99.90
30047;DHT22;16878;52.542;13.426;2022-08-01T02:29:15;21.20;99.90
30047;DHT22;16878;52.542;13.426;2022-08-01T02:31:43;21.20;99.90
30047;DHT22;16878;52.542;13.426;2022-08-01T02:34:15;21.10;99.90
30047;DHT22;16878;52.542;13.426;2022-08-01T02:36:43;21.10;99.90
30047;DHT22;16878;52.542;13.426;2022-08-01T02:39:13;21.10;99.90
30047;DHT22;16878;52.542;13.426;2022-08-01T02:41:43;21.00;99.90
30047;DHT22;16878;52.542;13.426;2022-08-01T02:44:16;21.10;99.90
30047;DHT22;16878;52.542;13.426;2022-08-01T02:46:48;21.00;99.90
30047;DHT22;16878;52.542;13.426;2022-08-01T02:49:16;21.00;99.90
30047;DHT22;16878;52.542;13.426;2022-08-01T02:51:44;21.00;99.90
30047;DHT22;16878;52.542;13.426;2022-08-01T02:54:12;21.00;99.90
30047;DHT22;16878;52.542;13.426;2022-08-01T02:56:40;21.00;99.90
30047;DHT22;16878;52.542;13.426;2022-08-01T02:59:12;21.00;99.90
30047;DHT22;16878;52.542;13.426;2022-08-01T03:01:38;20.90;99.90
30047;DHT22;16878;52.542;13.426;2022-08-01T03:04:06;20.90;99.90
30047;DHT22;16878;52.542;13.426;2022-08-01T03:06:33;20.90;99.90
30047;DHT22;16878;52.542;13.426;2022-08-01T03:09:00;20.90;99.90
30047;DHT22;16878;52.542;13.426;2022-08-01T03:11:27;20.90;99.90
30047;DHT22;16878;52.542;13.426;2022-08-01T03:13:56;20.90;99.90
30047;DHT22;16878;52.542;13.426;2022-08-01T03:16:25;20.80;99.90
30047;DHT22;16878;52.542;13.426;2022-08-01T03:18:53;20.80;99.90
30047;DHT22;16878;52.542;13.426;2022-08-01T03:21:21;20.80;99.90
30047;DHT22;16878;52.542;13.426;2022-08-01T03:23:50;20.80;99.90
30047;DHT22;16878;52.542;13.426;2022-08-01T03:26:17;20.90;99.90
30047;DHT22;16878;52.542;13.426;2022-08-01T03:28:46;20.90;99.90
30047;DHT22;16878;52.542;13.426;2022-08-01T03:31:14;20.90;99.90
30047;DHT22;16878;52.542;13.426;2022-08-01T03:33:40;21.00;99.90
30047;DHT22;16878;52.542;13.426;2022-08-01T03:36:09;21.00;99.90
30047;DHT22;16878;52.542;13.426;2022-08-01T03:38:37;21.00;99.90
30047;DHT22;16878;52.542;13.426;2022-08-01T03:41:14;21.00;99.90
30047;DHT22;16878;52.542;13.426;2022-08-01T03:43:45;21.00;99.90
30047;DHT22;16878;52.542;13.426;2022-08-01T03:46:22;21.00;99.90
30047;DHT22;16878;52.542;13.426;2022-08-01T03:48:54;21.10;99.90
30047;DHT22;16878;52.542;13.426;2022-08-01T03:51:21;21.20;99.90
30047;DHT22;16878;52.542;13.426;2022-08-01T03:53:49;21.30;99.90
30047;DHT22;16878;52.542;13.426;2022-08-01T03:56:18;21.30;99.90
30047;DHT22;16878;52.542;13.426;2022-08-01T03:58:45;21.30;99.90
30047;DHT22;16878;52.542;13.426;2022-08-01T04:01:11;21.30;99.90
30047;DHT22;16878;52.542;13.426;2022-08-01T04:03:38;21.30;99.90
30047;DHT22;16878;52.542;13.426;2022-08-01T04:06:05;21.40;99.90
30047;DHT22;16878;52.542;13.426;2022-08-01T04:08:37;21.40;99.90
30047;DHT22;16878;52.542;13.426;2022-08-01T04:11:04;21.40;99.90
30047;DHT22;16878;52.542;13.426;2022-08-01T04:13:30;21.40;99.90
30047;DHT22;16878;52.542;13.426;2022-08-01T04:15:56;21.40;99.90
30047;DHT22;16878;52.542;13.426;2022-08-01T04:18:22;21.40;99.90
30047;DHT22;16878;52.542;13.426;2022-08-01T04:20:47;21.40;99.90
30047;DHT22;16878;52.542;13.426;2022-08-01T04:23:18;21.40;99.90
30047;DHT22;16878;52.542;13.426;2022-08-01T04:25:46;21.40;99.90
30047;DHT22;16878;52.542;13.426;2022-08-01T04:28:13;21.40;99.90
30047;DHT22;16878;52.542;13.426;2022-08-01T04:30:43;21.50;99.90
30047;DHT22;16878;52.542;13.426;2022-08-01T04:33:11;21.40;99.90
30047;DHT22;16878;52.542;13.426;2022-08-01T04:35:39;21.40;99.90
30047;DHT22;16878;52.542;13.426;2022-08-01T04:38:08;21.50;99.90
30047;DHT22;16878;52.542;13.426;2022-08-01T04:40:35;21.50;99.90
30047;DHT22;16878;52.542;13.426;2022-08-01T04:43:02;21.60;99.90
30047;DHT22;16878;52.542;13.426;2022-08-01T04:45:28;21.70;99.90
30047;DHT22;16878;52.542;13.426;2022-08-01T04:47:54;21.70;99.90
30047;DHT22;16878;52.542;13.426;2022-08-01T04:50:21;21.70;99.90
30047;DHT22;16878;52.542;13.426;2022-08-01T04:52:47;21.60;99.90
30047;DHT22;16878;52.542;13.426;2022-08-01T04:55:13;21.60;99.90
30047;DHT22;16878;52.542;13.426;2022-08-01T04:57:43;21.50;99.90
30047;DHT22;16878;52.542;13.426;2022-08-01T05:00:10;21.40;99.90
30047;DHT22;16878;52.542;13.426;2022-08-01T05:02:36;21.40;99.90
30047;DHT22;16878;52.542;13.426;2022-08-01T05:05:02;21.40;99.90
30047;DHT22;16878;52.542;13.426;2022-08-01T05:07:28;21.40;99.90
30047;DHT22;16878;52.542;13.426;2022-08-01T05:09:53;21.40;99.90
30047;DHT22;16878;52.542;13.426;2022-08-01T05:12:19;21.30;99.90
30047;DHT22;16878;52.542;13.426;2022-08-01T05:14:46;21.30;99.90
30047;DHT22;16878;52.542;13.426;2022-08-01T05:17:11;21.30;99.90
30047;DHT22;16878;52.542;13.426;2022-08-01T05:19:39;21.40;99.90
30047;DHT22;16878;52.542;13.426;2022-08-01T05:22:07;21.40;99.90
30047;DHT22;16878;52.542;13.426;2022-08-01T05:24:38;21.40;99.90
30047;DHT22;16878;52.542;13.426;2022-08-01T05:27:04;21.40;99.90
30047;DHT22;16878;52.542;13.426;2022-08-01T05:29:30;21.40;99.90
30047;DHT22;16878;52.542;13.426;2022-08-01T05:31:56;21.40;99.90
30047;DHT22;16878;52.542;13.426;2022-08-01T05:34:22;21.40;99.90
30047;DHT22;16878;52.542;13.426;2022-08-01T05:36:48;21.30;99.90
30047;DHT22;16878;52.542;13.426;2022-08-01T05:39:14;21.30;99.90
30047;DHT22;16878;52.542;13.426;2022-08-01T05:41:41;21.30;99.90
30047;DHT22;16878;52.542;13.426;2022-08-01T05:44:06;21.30;99.90
30047;DHT22;16878;52.542;13.426;2022-08-01T05:46:33;21.40;99.90
30047;DHT22;16878;52.542;13.426;2022-08-01T05:49:02;21.40;99.90
30047;DHT22;16878;52.542;13.426;2022-08-01T05:51:29;21.50;99.90
30047;DHT22;16878;52.542;13.426;2022-08-01T05:53:55;21.50;99.90
30047;DHT22;16878;52.542;13.426;2022-08-01T05:56:21;21.50;99.90
30047;DHT22;16878;52.542;13.426;2022-08-01T05:58:47;21.60;99.90
30047;DHT22;16878;52.542;13.426;2022-08-01T06:01:13;21.70;99.90
30047;DHT22;16878;52.542;13.426;2022-08-01T06:03:39;21.80;99.90
30047;DHT22;16878;52.542;13.426;2022-08-01T06:06:05;21.80;99.90
30047;DHT22;16878;52.542;13.426;2022-08-01T06:08:31;21.70;99.90
30047;DHT22;16878;52.542;13.426;2022-08-01T06:10:57;21.60;99.90
30047;DHT22;16878;52.542;13.426;2022-08-01T06:13:23;21.60;99.90
30047;DHT22;16878;52.542;13.426;2022-08-01T06:15:49;21.60;99.90
30047;DHT22;16878;52.542;13.426;2022-08-01T06:18:15;21.70;99.90
30047;DHT22;16878;52.542;13.426;2022-08-01T06:20:40;21.70;99.90
30047;DHT22;16878;52.542;13.426;2022-08-01T06:23:06;21.70;99.90
30047;DHT22;16878;52.542;13.426;2022-08-01T06:25:32;21.70;99.90
30047;DHT22;16878;52.542;13.426;2022-08-01T06:27:58;21.60;99.90
30047;DHT22;16878;52.542;13.426;2022-08-01T06:30:24;21.50;99.90
30047;DHT22;16878;52.542;13.426;2022-08-01T06:32:50;21.50;99.90
30047;DHT22;16878;52.542;13.426;2022-08-01T06:35:15;21.50;99.90
30047;DHT22;16878;52.542;13.426;2022-08-01T06:37:41;21.60;99.90
30047;DHT22;16878;52.542;13.426;2022-08-01T06:40:10;21.70;99.90
30047;DHT22;16878;52.542;13.426;2022-08-01T06:42:36;21.80;99.90
30047;DHT22;16878;52.542;13.426;2022-08-01T06:45:07;22.00;99.90
30047;DHT22;16878;52.542;13.426;2022-08-01T06:47:33;22.10;99.90
30047;DHT22;16878;52.542;13.426;2022-08-01T06:49:59;22.20;99.90
30047;DHT22;16878;52.542;13.426;2022-08-01T06:52:25;22.50;99.90
30047;DHT22;16878;52.542;13.426;2022-08-01T06:54:50;23.20;99.90
30047;DHT22;16878;52.542;13.426;2022-08-01T06:57:16;23.10;99.90
30047;DHT22;16878;52.542;13.426;2022-08-01T06:59:42;22.70;99.90
30047;DHT22;16878;52.542;13.426;2022-08-01T07:02:07;22.40;99.90
30047;DHT22;16878;52.542;13.426;2022-08-01T07:04:33;22.30;99.90
30047;DHT22;16878;52.542;13.426;2022-08-01T07:06:59;22.30;99.90
30047;DHT22;16878;52.542;13.426;2022-08-01T07:09:26;22.20;99.90
30047;DHT22;16878;52.542;13.426;2022-08-01T07:11:52;22.10;99.90
30047;DHT22;16878;52.542;13.426;2022-08-01T07:14:19;22.00;99.90
30047;DHT22;16878;52.542;13.426;2022-08-01T07:16:44;22.00;99.90
30047;DHT22;16878;52.542;13.426;2022-08-01T07:19:10;22.10;99.90
30047;DHT22;16878;52.542;13.426;2022-08-01T07:21:36;22.00;99.90
30047;DHT22;16878;52.542;13.426;2022-08-01T07:24:04;22.00;99.90
30047;DHT22;16878;52.542;13.426;2022-08-01T07:26:30;22.10;99.90
30047;DHT22;16878;52.542;13.426;2022-08-01T07:28:55;22.00;99.90
30047;DHT22;16878;52.542;13.426;2022-08-01T07:31:21;21.90;99.90
30047;DHT22;16878;52.542;13.426;2022-08-01T07:33:48;21.90;99.90
30047;DHT22;16878;52.542;13.426;2022-08-01T07:36:14;21.80;99.90
30047;DHT22;16878;52.542;13.426;2022-08-01T07:38:40;21.70;99.90
30047;DHT22;16878;52.542;13.426;2022-08-01T07:41:05;21.60;99.90
30047;DHT22;16878;52.542;13.426;2022-08-01T07:43:31;21.50;99.90
30047;DHT22;16878;52.542;13.426;2022-08-01T07:45:56;21.50;99.90
30047;DHT22;16878;52.542;13.426;2022-08-01T07:48:22;21.60;99.90
30047;DHT22;16878;52.542;13.426;2022-08-01T07:50:50;21.80;99.90
30047;DHT22;16878;52.542;13.426;2022-08-01T07:53:16;21.90;99.90
30047;DHT22;16878;52.542;13.426;2022-08-01T07:55:42;22.30;99.90
30047;DHT22;16878;52.542;13.426;2022-08-01T07:58:08;22.50;99.90
30047;DHT22;16878;52.542;13.426;2022-08-01T08:00:33;22.60;99.90
30047;DHT22;16878;52.542;13.426;2022-08-01T08:02:59;22.60;99.90
30047;DHT22;16878;52.542;13.426;2022-08-01T08:05:26;22.50;99.90
30047;DHT22;16878;52.542;13.426;2022-08-01T08:07:52;22.40;99.90
30047;DHT22;16878;52.542;13.426;2022-08-01T08:10:18;22.30;99.90
30047;DHT22;16878;52.542;13.426;2022-08-01T08:12:44;22.20;99.90
30047;DHT22;16878;52.542;13.426;2022-08-01T08:15:12;22.10;99.90
30047;DHT22;16878;52.542;13.426;2022-08-01T08:17:38;22.00;99.90
30047;DHT22;16878;52.542;13.426;2022-08-01T08:20:08;21.90;99.90
30047;DHT22;16878;52.542;13.426;2022-08-01T08:22:34;21.80;99.90
30047;DHT22;16878;52.542;13.426;2022-08-01T08:25:00;21.70;99.90
30047;DHT22;16878;52.542;13.426;2022-08-01T08:27:26;21.70;99.90
30047;DHT22;16878;52.542;13.426;2022-08-01T08:29:52;21.90;99.90
30047;DHT22;16878;52.542;13.426;2022-08-01T08:32:18;22.20;99.90
30047;DHT22;16878;52.542;13.426;2022-08-01T08:34:43;22.80;99.90
30047;DHT22;16878;52.542;13.426;2022-08-01T08:37:10;23.60;99.90
30047;DHT22;16878;52.542;13.426;2022-08-01T08:39:35;24.00;99.90
30047;DHT22;16878;52.542;13.426;2022-08-01T08:42:04;24.00;99.90
30047;DHT22;16878;52.542;13.426;2022-08-01T08:44:31;24.00;99.90
30047;DHT22;16878;52.542;13.426;2022-08-01T08:46:58;24.00;99.90
30047;DHT22;16878;52.542;13.426;2022-08-01T08:49:27;23.90;99.90
30047;DHT22;16878;52.542;13.426;2022-08-01T08:51:53;23.70;99.90
30047;DHT22;16878;52.542;13.426;2022-08-01T08:54:24;23.30;99.90
30047;DHT22;16878;52.542;13.426;2022-08-01T08:56:52;23.10;99.90
30047;DHT22;16878;52.542;13.426;2022-08-01T08:59:18;22.90;99.90
30047;DHT22;16878;52.542;13.426;2022-08-01T09:01:45;22.90;99.90
30047;DHT22;16878;52.542;13.426;2022-08-01T09:04:11;22.90;99.90
30047;DHT22;16878;52.542;13.426;2022-08-01T09:06:37;23.20;99.90
30047;DHT22;16878;52.542;13.426;2022-08-01T09:09:04;23.70;99.90
30047;DHT22;16878;52.542;13.426;2022-08-01T09:11:30;24.10;99.90
30047;DHT22;16878;52.542;13.426;2022-08-01T09:16:35;24.60;99.90
30047;DHT22;16878;52.542;13.426;2022-08-01T09:19:12;24.80;99.90
30047;DHT22;16878;52.542;13.426;2022-08-01T09:21:38;24.70;99.90
30047;DHT22;16878;52.542;13.426;2022-08-01T09:24:13;24.80;99.90
30047;DHT22;16878;52.542;13.426;2022-08-01T09:26:39;24.80;99.90
30047;DHT22;16878;52.542;13.426;2022-08-01T09:29:06;24.60;99.90
30047;DHT22;16878;52.542;13.426;2022-08-01T09:31:42;24.30;99.90
30047;DHT22;16878;52.542;13.426;2022-08-01T09:34:08;24.20;99.90
30047;DHT22;16878;52.542;13.426;2022-08-01T09:39:15;24.50;99.90
30047;DHT22;16878;52.542;13.426;2022-08-01T09:41:41;24.30;99.90
30047;DHT22;16878;52.542;13.426;2022-08-01T09:44:07;24.00;99.90
30047;DHT22;16878;52.542;13.426;2022-08-01T09:46:32;23.60;99.90
30047;DHT22;16878;52.542;13.426;2022-08-01T09:49:05;23.20;99.90
30047;DHT22;16878;52.542;13.426;2022-08-01T09:51:37;23.00;99.90
30047;DHT22;16878;52.542;13.426;2022-08-01T09:54:04;22.90;99.90
30047;DHT22;16878;52.542;13.426;2022-08-01T09:56:41;22.90;99.90
30047;DHT22;16878;52.542;13.426;2022-08-01T09:59:11;23.00;99.90
30047;DHT22;16878;52.542;13.426;2022-08-01T10:01:55;23.10;99.90
30047;DHT22;16878;52.542;13.426;2022-08-01T10:04:21;23.10;99.90
30047;DHT22;16878;52.542;13.426;2022-08-01T10:06:50;23.10;99.90
30047;DHT22;16878;52.542;13.426;2022-08-01T10:09:35;23.10;99.90
30047;DHT22;16878;52.542;13.426;2022-08-01T10:12:03;22.90;99.90
30047;DHT22;16878;52.542;13.426;2022-08-01T10:14:29;22.90;99.90
30047;DHT22;16878;52.542;13.426;2022-08-01T10:16:57;22.70;99.90
30047;DHT22;16878;52.542;13.426;2022-08-01T10:19:24;22.60;99.90
30047;DHT22;16878;52.542;13.426;2022-08-01T10:21:52;22.50;99.90
30047;DHT22;16878;52.542;13.426;2022-08-01T10:24:23;22.40;99.90
30047;DHT22;16878;52.542;13.426;2022-08-01T10:26:51;22.30;99.90
30047;DHT22;16878;52.542;13.426;2022-08-01T10:29:18;22.20;99.90
30047;DHT22;16878;52.542;13.426;2022-08-01T10:31:46;22.30;99.90
30047;DHT22;16878;52.542;13.426;2022-08-01T10:34:13;22.30;99.90
30047;DHT22;16878;52.542;13.426;2022-08-01T10:36:41;22.40;99.90
30047;DHT22;16878;52.542;13.426;2022-08-01T10:39:10;22.50;99.90
30047;DHT22;16878;52.542;13.426;2022-08-01T10:41:37;22.70;99.90
30047;DHT22;16878;52.542;13.426;2022-08-01T10:44:03;22.80;99.90
30047;DHT22;16878;52.542;13.426;2022-08-01T10:46:30;23.10;99.90
30047;DHT22;16878;52.542;13.426;2022-08-01T10:49:03;23.30;99.90
30047;DHT22;16878;52.542;13.426;2022-08-01T10:51:30;23.30;99.90
30047;DHT22;16878;52.542;13.426;2022-08-01T10:53:56;23.40;99.90
30047;DHT22;16878;52.542;13.426;2022-08-01T10:56:23;23.30;99.90
30047;DHT22;16878;52.542;13.426;2022-08-01T10:58:49;23.20;99.90
30047;DHT22;16878;52.542;13.426;2022-08-01T11:01:30;23.10;99.90
30047;DHT22;16878;52.542;13.426;2022-08-01T11:06:42;23.20;99.90
30047;DHT22;16878;52.542;13.426;2022-08-01T11:11:57;23.70;99.90
30047;DHT22;16878;52.542;13.426;2022-08-01T11:14:24;24.00;99.90
30047;DHT22;16878;52.542;13.426;2022-08-01T11:16:50;24.10;99.90
30047;DHT22;16878;52.542;13.426;2022-08-01T11:19:15;24.00;99.90
30047;DHT22;16878;52.542;13.426;2022-08-01T11:29:42;22.80;99.90
30047;DHT22;16878;52.542;13.426;2022-08-01T11:32:24;22.50;99.90
30047;DHT22;16878;52.542;13.426;2022-08-01T11:34:54;22.30;99.90
30047;DHT22;16878;52.542;13.426;2022-08-01T11:37:25;22.10;99.90
30047;DHT22;16878;52.542;13.426;2022-08-01T11:42:45;22.10;99.90
30047;DHT22;16878;52.542;13.426;2022-08-01T11:45:11;22.20;99.90
30047;DHT22;16878;52.542;13.426;2022-08-01T11:47:49;22.40;99.90
30047;DHT22;16878;52.542;13.426;2022-08-01T11:50:35;22.80;99.90
30047;DHT22;16878;52.542;13.426;2022-08-01T11:53:03;23.10;99.90
30047;DHT22;16878;52.542;13.426;2022-08-01T11:55:30;23.50;99.90
30047;DHT22;16878;52.542;13.426;2022-08-01T11:58:00;23.80;99.90
30047;DHT22;16878;52.542;13.426;2022-08-01T12:00:26;24.00;99.90
30047;DHT22;16878;52.542;13.426;2022-08-01T12:03:00;24.20;99.90
30047;DHT22;16878;52.542;13.426;2022-08-01T12:05:27;24.50;99.90
30047;DHT22;16878;52.542;13.426;2022-08-01T12:07:53;24.60;99.90
30047;DHT22;16878;52.542;13.426;2022-08-01T12:10:21;24.70;99.90
30047;DHT22;16878;52.542;13.426;2022-08-01T12:12:50;24.60;99.90
30047;DHT22;16878;52.542;13.426;2022-08-01T12:15:16;24.80;99.90
30047;DHT22;16878;52.542;13.426;2022-08-01T12:17:45;24.90;99.90
30047;DHT22;16878;52.542;13.426;2022-08-01T12:20:13;24.80;99.90
30047;DHT22;16878;52.542;13.426;2022-08-01T12:22:39;24.80;99.90
30047;DHT22;16878;52.542;13.426;2022-08-01T12:25:10;24.50;99.90
30047;DHT22;16878;52.542;13.426;2022-08-01T12:27:38;24.00;99.90
30047;DHT22;16878;52.542;13.426;2022-08-01T12:30:18;23.70;99.90
30047;DHT22;16878;52.542;13.426;2022-08-01T12:32:46;23.40;99.90
30047;DHT22;16878;52.542;13.426;2022-08-01T12:35:17;23.40;99.90
30047;DHT22;16878;52.542;13.426;2022-08-01T12:37:51;23.70;99.90
30047;DHT22;16878;52.542;13.426;2022-08-01T12:42:50;24.30;99.90
30047;DHT22;16878;52.542;13.426;2022-08-01T12:45:21;24.60;99.90
30047;DHT22;16878;52.542;13.426;2022-08-01T12:47:49;24.70;99.90
30047;DHT22;16878;52.542;13.426;2022-08-01T12:50:19;24.80;99.90
30047;DHT22;16878;52.542;13.426;2022-08-01T12:52:46;25.00;99.90
30047;DHT22;16878;52.542;13.426;2022-08-01T12:55:20;25.10;99.90
30047;DHT22;16878;52.542;13.426;2022-08-01T12:57:50;25.10;99.90
30047;DHT22;16878;52.542;13.426;2022-08-01T13:02:45;25.20;99.90
30047;DHT22;16878;52.542;13.426;2022-08-01T13:05:12;25.20;99.90
30047;DHT22;16878;52.542;13.426;2022-08-01T13:07:47;25.10;99.90
30047;DHT22;16878;52.542;13.426;2022-08-01T13:10:14;24.80;99.90
30047;DHT22;16878;52.542;13.426;2022-08-01T13:12:50;24.30;99.90
30047;DHT22;16878;52.542;13.426;2022-08-01T13:15:21;23.90;99.90
30047;DHT22;16878;52.542;13.426;2022-08-01T13:17:47;23.60;99.90
30047;DHT22;16878;52.542;13.426;2022-08-01T13:20:32;23.50;99.90
30047;DHT22;16878;52.542;13.426;2022-08-01T13:23:16;23.40;99.90
30047;DHT22;16878;52.542;13.426;2022-08-01T13:25:55;23.50;99.90
30047;DHT22;16878;52.542;13.426;2022-08-01T13:28:24;23.60;99.90
30047;DHT22;16878;52.542;13.426;2022-08-01T13:30:54;23.80;99.90
30047;DHT22;16878;52.542;13.426;2022-08-01T13:33:20;23.80;99.90
30047;DHT22;16878;52.542;13.426;2022-08-01T13:35:46;23.80;99.90
30047;DHT22;16878;52.542;13.426;2022-08-01T13:38:13;23.70;99.90
30047;DHT22;16878;52.542;13.426;2022-08-01T13:40:39;23.60;99.90
30047;DHT22;16878;52.542;13.426;2022-08-01T13:43:04;23.50;99.90
30047;DHT22;16878;52.542;13.426;2022-08-01T13:45:30;23.30;99.90
30047;DHT22;16878;52.542;13.426;2022-08-01T13:47:56;23.20;99.90
30047;DHT22;16878;52.542;13.426;2022-08-01T13:50:22;23.10;99.90
30047;DHT22;16878;52.542;13.426;2022-08-01T13:52:47;23.00;99.90
30047;DHT22;16878;52.542;13.426;2022-08-01T13:55:13;23.00;99.90
30047;DHT22;16878;52.542;13.426;2022-08-01T13:57:39;22.90;99.90
30047;DHT22;16878;52.542;13.426;2022-08-01T14:00:06;23.00;99.90
30047;DHT22;16878;52.542;13.426;2022-08-01T14:02:32;23.00;99.90
30047;DHT22;16878;52.542;13.426;2022-08-01T14:04:58;23.10;99.90
30047;DHT22;16878;52.542;13.426;2022-08-01T14:07:24;23.10;99.90
30047;DHT22;16878;52.542;13.426;2022-08-01T14:09:50;23.20;99.90
30047;DHT22;16878;52.542;13.426;2022-08-01T14:12:16;23.20;99.90
30047;DHT22;16878;52.542;13.426;2022-08-01T14:14:42;23.40;99.90
30047;DHT22;16878;52.542;13.426;2022-08-01T14:17:07;23.50;99.90
30047;DHT22;16878;52.542;13.426;2022-08-01T14:19:33;23.80;99.90
30047;DHT22;16878;52.542;13.426;2022-08-01T14:21:59;24.10;99.90
30047;DHT22;16878;52.542;13.426;2022-08-01T14:24:24;24.30;99.90
30047;DHT22;16878;52.542;13.426;2022-08-01T14:26:51;24.50;99.90
30047;DHT22;16878;52.542;13.426;2022-08-01T14:29:17;24.60;99.90
30047;DHT22;16878;52.542;13.426;2022-08-01T14:31:43;24.80;99.90
30047;DHT22;16878;52.542;13.426;2022-08-01T14:34:09;24.90;99.90
30047;DHT22;16878;52.542;13.426;2022-08-01T14:36:35;25.00;99.90
30047;DHT22;16878;52.542;13.426;2022-08-01T14:39:01;24.80;99.90
30047;DHT22;16878;52.542;13.426;2022-08-01T14:41:29;24.60;99.90
30047;DHT22;16878;52.542;13.426;2022-08-01T14:43:55;24.40;99.90
30047;DHT22;16878;52.542;13.426;2022-08-01T14:46:20;24.40;99.90
30047;DHT22;16878;52.542;13.426;2022-08-01T14:48:46;24.30;99.90
30047;DHT22;16878;52.542;13.426;2022-08-01T14:51:12;24.20;99.90
30047;DHT22;16878;52.542;13.426;2022-08-01T14:53:38;24.30;99.90
30047;DHT22;16878;52.542;13.426;2022-08-01T14:56:05;24.30;99.90
30047;DHT22;16878;52.542;13.426;2022-08-01T14:58:30;24.20;99.90
30047;DHT22;16878;52.542;13.426;2022-08-01T15:00:56;24.00;99.90
30047;DHT22;16878;52.542;13.426;2022-08-01T15:03:22;23.80;99.90
30047;DHT22;16878;52.542;13.426;2022-08-01T15:05:48;23.70;99.90
30047;DHT22;16878;52.542;13.426;2022-08-01T15:08:13;23.60;99.90
30047;DHT22;16878;52.542;13.426;2022-08-01T15:10:39;23.50;99.90
30047;DHT22;16878;52.542;13.426;2022-08-01T15:13:05;23.60;99.90
30047;DHT22;16878;52.542;13.426;2022-08-01T15:15:31;23.70;99.90
30047;DHT22;16878;52.542;13.426;2022-08-01T15:17:56;23.70;99.90
30047;DHT22;16878;52.542;13.426;2022-08-01T15:20:22;23.70;99.90
30047;DHT22;16878;52.542;13.426;2022-08-01T15:22:48;23.80;99.90
30047;DHT22;16878;52.542;13.426;2022-08-01T15:25:14;23.70;99.90
30047;DHT22;16878;52.542;13.426;2022-08-01T15:27:40;23.70;99.90
30047;DHT22;16878;52.542;13.426;2022-08-01T15:30:06;23.70;99.90
30047;DHT22;16878;52.542;13.426;2022-08-01T15:32:32;23.70;99.90
30047;DHT22;16878;52.542;13.426;2022-08-01T15:34:57;23.60;99.90
30047;DHT22;16878;52.542;13.426;2022-08-01T15:37:23;23.60;99.90
30047;DHT22;16878;52.542;13.426;2022-08-01T15:39:49;23.50;99.90
30047;DHT22;16878;52.542;13.426;2022-08-01T15:42:16;23.50;99.90
30047;DHT22;16878;52.542;13.426;2022-08-01T15:44:43;23.30;99.90
30047;DHT22;16878;52.542;13.426;2022-08-01T15:47:09;23.20;99.90
30047;DHT22;16878;52.542;13.426;2022-08-01T15:49:36;23.20;99.90
30047;DHT22;16878;52.542;13.426;2022-08-01T15:52:04;23.10;99.90
30047;DHT22;16878;52.542;13.426;2022-08-01T15:54:29;23.10;99.90
30047;DHT22;16878;52.542;13.426;2022-08-01T15:56:58;23.10;99.90
30047;DHT22;16878;52.542;13.426;2022-08-01T15:59:24;23.10;99.90